createdAt,value
2018-05-25T00:00:11.691Z,15.39
2018-05-25T00:02:39.261Z,15.27
2018-05-25T00:05:06.721Z,15.35
2018-05-25T00:07:34.218Z,15.31
2018-05-25T00:10:01.716Z,15.20
2018-05-25T00:12:29.191Z,15.16
2018-05-25T00:14:56.716Z,15.09
2018-05-25T00:17:24.185Z,15.19
2018-05-25T00:19:51.676Z,15.05
2018-05-25T00:22:19.168Z,15.06
2018-05-25T00:24:46.715Z,14.88
2018-05-25T00:27:14.201Z,14.87
2018-05-25T00:29:41.667Z,14.90
2018-05-25T00:32:09.269Z,14.74
2018-05-25T00:34:36.749Z,14.87
2018-05-25T00:37:04.248Z,14.94
2018-05-25T00:39:31.730Z,14.83
2018-05-25T00:41:59.231Z,14.85
2018-05-25T00:44:26.697Z,14.92
2018-05-25T00:46:54.310Z,14.85
2018-05-25T00:49:21.784Z,15.03
2018-05-25T00:51:49.271Z,15.04
2018-05-25T00:54:16.769Z,15.02
2018-05-25T00:56:44.236Z,15.11
2018-05-25T00:59:11.727Z,15.24
2018-05-25T01:01:39.265Z,15.23
2018-05-25T01:10:02.711Z,15.32
2018-05-25T01:12:30.371Z,15.40
2018-05-25T01:14:57.932Z,15.39
2018-05-25T01:17:25.497Z,15.40
2018-05-25T01:19:53.061Z,15.40
2018-05-25T01:22:20.573Z,15.33
2018-05-25T01:24:48.117Z,15.31
2018-05-25T01:27:15.596Z,15.31
2018-05-25T01:29:43.079Z,15.28
2018-05-25T01:32:10.593Z,15.34
2018-05-25T01:34:38.125Z,15.35
2018-05-25T01:37:05.661Z,15.25
2018-05-25T01:39:33.121Z,15.24
2018-05-25T01:42:00.607Z,15.34
2018-05-25T01:44:28.086Z,15.36
2018-05-25T01:46:55.608Z,15.41
2018-05-25T01:49:23.366Z,15.36
2018-05-25T01:51:50.903Z,15.31
2018-05-25T01:54:18.385Z,15.21
2018-05-25T01:56:45.874Z,15.15
2018-05-25T01:59:13.383Z,15.10
2018-05-25T02:01:40.862Z,14.85
2018-05-25T02:04:08.350Z,14.90
2018-05-25T02:06:35.816Z,14.81
2018-05-25T02:09:03.308Z,14.78
2018-05-25T02:11:30.799Z,14.68
2018-05-25T02:13:58.260Z,14.60
2018-05-25T02:16:25.724Z,14.59
2018-05-25T02:18:53.228Z,14.61
2018-05-25T02:21:20.747Z,14.57
2018-05-25T02:23:48.234Z,14.56
2018-05-25T02:26:15.732Z,14.36
2018-05-25T02:28:43.241Z,14.34
2018-05-25T02:31:10.794Z,14.30
2018-05-25T02:33:38.334Z,14.34
2018-05-25T02:36:05.855Z,14.28
2018-05-25T02:38:33.401Z,14.28
2018-05-25T02:41:00.851Z,14.26
2018-05-25T02:43:28.321Z,14.26
2018-05-25T02:45:55.810Z,14.32
2018-05-25T02:48:23.308Z,14.26
2018-05-25T02:50:50.776Z,14.18
2018-05-25T02:53:18.338Z,14.14
2018-05-25T02:55:45.804Z,14.08
2018-05-25T02:58:13.401Z,14.07
2018-05-25T03:00:40.955Z,14.08
2018-05-25T03:03:08.468Z,14.05
2018-05-25T03:05:35.997Z,13.99
2018-05-25T03:08:03.459Z,13.92
2018-05-25T03:10:30.968Z,14.05
2018-05-25T03:12:58.476Z,14.01
2018-05-25T03:15:26.014Z,13.95
2018-05-25T03:17:53.496Z,13.84
2018-05-25T03:20:20.957Z,13.89
2018-05-25T03:22:48.442Z,13.86
2018-05-25T03:25:15.997Z,13.87
2018-05-25T03:27:43.473Z,13.92
2018-05-25T03:30:10.978Z,13.95
2018-05-25T03:32:38.439Z,13.91
2018-05-25T03:35:05.987Z,13.85
2018-05-25T03:37:33.497Z,13.84
2018-05-25T03:40:01.141Z,13.89
2018-05-25T03:42:28.604Z,13.70
2018-05-25T03:44:56.125Z,13.75
2018-05-25T03:47:23.614Z,13.73
2018-05-25T03:49:51.080Z,13.81
2018-05-25T03:52:18.572Z,13.81
2018-05-25T03:54:46.057Z,13.75
2018-05-25T03:57:13.556Z,13.76
2018-05-25T03:59:52.916Z,13.80
2018-05-25T04:02:20.400Z,13.80
2018-05-25T04:04:47.896Z,13.74
2018-05-25T04:10:06.143Z,13.77
2018-05-25T04:12:33.632Z,13.88
2018-05-25T04:15:01.097Z,13.94
2018-05-25T04:17:29.406Z,14.04
2018-05-25T04:19:56.870Z,14.09
2018-05-25T04:22:24.334Z,14.23
2018-05-25T04:24:51.812Z,14.25
2018-05-25T04:27:19.293Z,14.28
2018-05-25T04:29:46.836Z,14.39
2018-05-25T04:32:14.325Z,14.47
2018-05-25T04:34:41.851Z,14.39
2018-05-25T04:37:09.330Z,14.46
2018-05-25T04:39:36.833Z,14.64
2018-05-25T04:42:04.292Z,14.76
2018-05-25T04:44:31.861Z,14.67
2018-05-25T04:46:59.357Z,14.73
2018-05-25T04:49:26.903Z,14.81
2018-05-25T04:51:54.371Z,15.01
2018-05-25T04:54:21.845Z,14.94
2018-05-25T04:56:49.333Z,15.03
2018-05-25T04:59:16.846Z,15.15
2018-05-25T05:01:44.316Z,15.33
2018-05-25T05:04:11.783Z,15.36
2018-05-25T05:06:39.289Z,15.37
2018-05-25T05:09:06.776Z,15.62
2018-05-25T05:11:34.266Z,15.62
2018-05-25T05:14:02.054Z,15.61
2018-05-25T05:19:19.770Z,15.91
2018-05-25T05:21:47.237Z,16.05
2018-05-25T05:24:14.715Z,16.24
2018-05-25T05:26:42.197Z,16.30
2018-05-25T05:29:09.701Z,16.44
2018-05-25T05:31:37.354Z,16.56
2018-05-25T05:34:04.829Z,16.54
2018-05-25T05:36:32.320Z,16.60
2018-05-25T05:38:59.823Z,16.78
2018-05-25T05:41:27.304Z,16.79
2018-05-25T05:43:54.794Z,17.09
2018-05-25T05:52:03.111Z,17.32
2018-05-25T05:54:30.567Z,17.65
2018-05-25T05:56:58.069Z,17.82
2018-05-25T05:59:25.539Z,17.83
2018-05-25T06:01:53.049Z,18.05
2018-05-25T06:04:21.314Z,18.23
2018-05-25T06:09:40.316Z,18.28
2018-05-25T06:12:19.680Z,18.39
2018-05-25T06:14:47.169Z,18.72
2018-05-25T06:17:14.663Z,18.75
2018-05-25T06:22:33.071Z,18.78
2018-05-25T06:25:00.538Z,18.86
2018-05-25T06:27:28.024Z,18.53
2018-05-25T06:29:55.483Z,19.00
2018-05-25T06:32:23.721Z,19.16
2018-05-25T06:34:51.292Z,19.19
2018-05-25T06:37:18.797Z,19.08
2018-05-25T06:39:46.287Z,19.19
2018-05-25T06:42:13.768Z,19.10
2018-05-25T06:50:21.922Z,19.89
2018-05-25T06:52:49.408Z,20.30
2018-05-25T06:55:16.890Z,20.30
2018-05-25T06:57:44.374Z,20.20
2018-05-25T07:00:11.857Z,20.18
2018-05-25T07:02:39.369Z,20.10
2018-05-25T07:05:06.857Z,20.53
2018-05-25T07:07:34.352Z,20.77
2018-05-25T07:10:01.891Z,20.96
2018-05-25T07:12:29.480Z,20.93
2018-05-25T07:14:56.971Z,21.13
2018-05-25T07:17:24.498Z,20.97
2018-05-25T07:19:51.987Z,21.37
2018-05-25T07:22:19.470Z,21.59
2018-05-25T07:24:46.997Z,21.29
2018-05-25T07:27:14.525Z,21.50
2018-05-25T07:29:42.008Z,21.54
2018-05-25T07:32:09.493Z,21.93
2018-05-25T07:34:36.986Z,21.79
2018-05-25T07:37:04.649Z,22.35
2018-05-25T07:39:32.143Z,22.23
2018-05-25T07:41:59.615Z,22.33
2018-05-25T07:44:27.112Z,22.31
2018-05-25T07:46:54.607Z,22.30
2018-05-25T07:49:22.109Z,22.34
2018-05-25T07:51:49.595Z,22.34
2018-05-25T07:54:17.164Z,22.07
2018-05-25T07:56:44.620Z,22.37
2018-05-25T07:59:12.182Z,22.52
2018-05-25T08:01:39.743Z,22.82
2018-05-25T08:04:07.209Z,22.83
2018-05-25T08:12:16.141Z,22.71
2018-05-25T08:14:43.621Z,23.18
2018-05-25T08:17:11.093Z,23.32
2018-05-25T08:19:38.587Z,23.34
2018-05-25T08:22:06.064Z,23.24
2018-05-25T08:24:33.548Z,23.28
2018-05-25T08:27:01.030Z,23.38
2018-05-25T08:29:28.518Z,23.43
2018-05-25T08:31:56.091Z,22.93
2018-05-25T08:34:23.571Z,23.36
2018-05-25T08:36:51.035Z,23.52
2018-05-25T08:39:18.556Z,24.09
2018-05-25T08:41:46.084Z,24.24
2018-05-25T08:44:13.594Z,23.74
2018-05-25T08:46:41.102Z,23.84
2018-05-25T08:49:08.629Z,24.17
2018-05-25T08:51:36.067Z,24.31
2018-05-25T08:54:03.528Z,24.86
2018-05-25T08:56:31.055Z,24.76
2018-05-25T08:58:58.542Z,25.06
2018-05-25T09:01:26.023Z,24.49
2018-05-25T09:03:53.507Z,24.65
2018-05-25T09:06:26.155Z,24.80
2018-05-25T09:08:53.686Z,24.93
2018-05-25T09:11:21.262Z,24.84
2018-05-25T09:13:48.655Z,25.32
2018-05-25T09:16:16.120Z,25.80
2018-05-25T09:18:43.599Z,25.58
2018-05-25T09:21:11.055Z,25.32
2018-05-25T09:23:38.523Z,25.05
2018-05-25T09:26:05.996Z,25.17
2018-05-25T09:28:33.488Z,25.46
2018-05-25T09:33:51.321Z,25.59
2018-05-25T09:36:18.901Z,25.70
2018-05-25T09:38:46.454Z,25.81
2018-05-25T09:41:13.934Z,25.70
2018-05-25T09:43:41.394Z,25.68
2018-05-25T09:46:08.861Z,25.61
2018-05-25T09:48:36.324Z,25.56
2018-05-25T09:51:03.793Z,25.58
2018-05-25T09:53:31.316Z,25.93
2018-05-25T10:04:30.976Z,26.76
2018-05-25T10:06:59.248Z,26.64
2018-05-25T10:09:26.722Z,26.84
2018-05-25T10:14:44.584Z,26.96
2018-05-25T10:17:12.076Z,27.02
2018-05-25T10:19:39.585Z,27.32
2018-05-25T10:22:07.052Z,27.75
2018-05-25T10:24:34.507Z,27.23
2018-05-25T10:27:02.067Z,26.82
2018-05-25T10:29:29.553Z,26.84
2018-05-25T10:34:47.351Z,26.99
2018-05-25T10:37:14.816Z,27.12
2018-05-25T10:39:42.359Z,27.42
2018-05-25T10:45:00.333Z,27.77
2018-05-25T10:47:28.173Z,28.01
2018-05-25T10:49:55.632Z,28.00
2018-05-25T10:52:23.155Z,28.00
2018-05-25T10:54:50.632Z,28.39
2018-05-25T10:57:18.109Z,27.66
2018-05-25T10:59:45.717Z,27.99
2018-05-25T11:02:13.193Z,27.87
2018-05-25T11:04:40.682Z,28.07
2018-05-25T11:07:08.136Z,27.89
2018-05-25T11:09:35.634Z,28.22
2018-05-25T11:12:03.103Z,28.33
2018-05-25T11:14:30.602Z,28.39
2018-05-25T11:16:58.058Z,28.92
2018-05-25T11:19:25.549Z,29.09
2018-05-25T11:21:53.042Z,29.08
2018-05-25T11:24:20.510Z,29.21
2018-05-25T11:26:47.967Z,28.97
2018-05-25T11:29:15.476Z,28.99
2018-05-25T11:31:42.975Z,28.67
2018-05-25T11:34:10.458Z,29.28
2018-05-25T11:36:37.945Z,29.62
2018-05-25T11:39:06.206Z,30.24
2018-05-25T11:41:33.673Z,29.70
2018-05-25T11:44:01.160Z,29.74
2018-05-25T11:46:28.615Z,29.69
2018-05-25T11:48:56.117Z,30.95
2018-05-25T11:51:23.577Z,31.84
2018-05-25T11:53:51.066Z,33.29
2018-05-25T11:56:18.550Z,35.16
2018-05-25T11:58:46.073Z,35.86
2018-05-25T12:01:13.540Z,36.57
2018-05-25T12:03:41.110Z,35.90
2018-05-25T12:06:08.568Z,37.14
2018-05-25T12:08:36.032Z,38.41
2018-05-25T12:11:03.533Z,38.59
2018-05-25T12:13:30.997Z,40.84
2018-05-25T12:15:58.465Z,40.93
2018-05-25T12:18:25.966Z,42.18
2018-05-25T12:20:53.496Z,41.36
2018-05-25T12:23:20.967Z,37.94
2018-05-25T12:25:48.463Z,39.85
2018-05-25T12:28:15.920Z,40.77
2018-05-25T12:30:43.416Z,42.26
2018-05-25T12:33:10.878Z,41.99
2018-05-25T12:35:38.367Z,43.75
2018-05-25T12:38:05.835Z,45.63
2018-05-25T12:40:33.419Z,43.89
2018-05-25T12:43:00.874Z,44.21
2018-05-25T12:45:28.603Z,43.53
2018-05-25T12:47:56.078Z,44.39
2018-05-25T12:50:23.531Z,46.36
2018-05-25T12:52:51.011Z,46.08
2018-05-25T12:55:18.494Z,45.59
2018-05-25T12:57:45.982Z,46.10
2018-05-25T13:00:13.479Z,46.23
2018-05-25T13:02:40.945Z,45.98
2018-05-25T13:05:08.408Z,45.53
2018-05-25T13:07:35.873Z,44.67
2018-05-25T13:10:03.372Z,44.07
2018-05-25T13:12:30.900Z,44.22
2018-05-25T13:14:58.405Z,44.44
2018-05-25T13:17:25.870Z,45.24
2018-05-25T13:19:53.335Z,46.10
2018-05-25T13:22:20.782Z,45.95
2018-05-25T13:24:48.251Z,46.29
2018-05-25T13:27:15.715Z,47.00
2018-05-25T13:29:43.171Z,46.88
2018-05-25T13:32:10.628Z,47.97
2018-05-25T13:34:38.091Z,47.39
2018-05-25T13:37:05.634Z,46.65
2018-05-25T13:39:33.353Z,45.39
2018-05-25T13:42:00.833Z,46.18
2018-05-25T13:44:28.815Z,44.81
2018-05-25T13:46:56.284Z,45.85
2018-05-25T13:49:23.846Z,46.10
2018-05-25T13:51:51.290Z,44.37
2018-05-25T13:54:18.923Z,45.25
2018-05-25T13:56:46.388Z,45.38
2018-05-25T13:59:13.862Z,44.75
2018-05-25T14:01:41.333Z,44.25
2018-05-25T14:04:08.808Z,44.00
2018-05-25T14:06:37.084Z,43.87
2018-05-25T14:09:07.312Z,42.19
2018-05-25T14:11:34.789Z,43.80
2018-05-25T14:14:02.267Z,44.25
2018-05-25T14:16:29.801Z,43.75
2018-05-25T14:18:57.254Z,43.17
2018-05-25T14:21:24.739Z,46.03
2018-05-25T14:23:52.210Z,45.46
2018-05-25T14:26:19.708Z,46.93
2018-05-25T14:28:47.285Z,47.46
2018-05-25T14:31:14.792Z,46.67
2018-05-25T14:33:42.252Z,47.96
2018-05-25T14:36:09.734Z,50.21
2018-05-25T14:38:37.286Z,50.11
2018-05-25T14:41:04.798Z,48.03
2018-05-25T14:43:32.287Z,49.05
2018-05-25T14:45:59.794Z,48.96
2018-05-25T14:48:27.244Z,49.00
2018-05-25T14:50:54.760Z,48.45
2018-05-25T14:53:22.259Z,49.16
2018-05-25T14:55:49.744Z,49.75
2018-05-25T14:58:17.202Z,49.18
2018-05-25T15:00:44.684Z,49.23
2018-05-25T15:03:12.163Z,44.90
2018-05-25T15:05:39.649Z,45.07
2018-05-25T15:08:07.124Z,44.74
2018-05-25T15:10:34.591Z,43.70
2018-05-25T15:13:02.071Z,41.83
2018-05-25T15:15:29.548Z,41.42
2018-05-25T15:17:57.013Z,43.15
2018-05-25T15:20:24.476Z,42.27
2018-05-25T15:22:51.981Z,42.08
2018-05-25T15:25:19.478Z,43.02
2018-05-25T15:27:46.935Z,44.62
2018-05-25T15:30:14.439Z,44.98
2018-05-25T15:32:42.061Z,45.98
2018-05-25T15:35:09.387Z,46.68
2018-05-25T15:37:36.843Z,46.64
2018-05-25T15:40:04.378Z,45.84
2018-05-25T15:42:31.839Z,45.98
2018-05-25T15:44:59.294Z,43.67
2018-05-25T15:47:26.772Z,43.58
2018-05-25T15:49:54.235Z,43.33
2018-05-25T15:52:21.699Z,43.25
2018-05-25T15:54:49.183Z,43.58
2018-05-25T15:57:16.632Z,44.19
2018-05-25T15:59:44.120Z,43.66
2018-05-25T16:02:11.607Z,42.92
2018-05-25T16:04:39.197Z,43.43
2018-05-25T16:07:06.728Z,42.22
2018-05-25T16:09:34.256Z,41.42
2018-05-25T16:12:01.743Z,43.36
2018-05-25T16:14:29.215Z,42.32
2018-05-25T16:16:56.711Z,43.46
2018-05-25T16:19:24.230Z,42.38
2018-05-25T16:21:51.782Z,42.98
2018-05-25T16:24:19.235Z,43.12
2018-05-25T16:26:46.750Z,42.52
2018-05-25T16:29:14.278Z,41.82
2018-05-25T16:31:41.776Z,42.86
2018-05-25T16:34:09.262Z,43.93
2018-05-25T16:36:36.751Z,43.57
2018-05-25T16:39:04.223Z,43.94
2018-05-25T16:41:31.712Z,43.65
2018-05-25T16:43:59.302Z,44.43
2018-05-25T16:46:26.766Z,44.31
2018-05-25T16:48:54.255Z,44.41
2018-05-25T16:51:21.706Z,45.30
2018-05-25T16:53:49.856Z,45.00
2018-05-25T16:56:17.318Z,44.03
2018-05-25T16:58:44.818Z,42.74
2018-05-25T17:01:12.276Z,43.44
2018-05-25T17:03:39.797Z,43.62
2018-05-25T17:06:07.303Z,42.92
2018-05-25T17:08:34.761Z,43.89
2018-05-25T17:11:02.270Z,42.59
2018-05-25T17:13:29.823Z,41.43
2018-05-25T17:15:58.420Z,42.05
2018-05-25T17:18:25.888Z,40.28
2018-05-25T17:20:53.346Z,38.45
2018-05-25T17:23:20.798Z,38.83
2018-05-25T17:25:48.274Z,38.36
2018-05-25T17:28:15.799Z,37.86
2018-05-25T17:30:43.272Z,38.22
2018-05-25T17:33:10.745Z,38.89
2018-05-25T17:35:38.243Z,38.74
2018-05-25T17:38:05.723Z,38.37
2018-05-25T17:40:33.180Z,38.53
2018-05-25T17:43:00.658Z,37.49
2018-05-25T17:45:28.120Z,35.24
2018-05-25T17:47:55.609Z,36.92
2018-05-25T17:50:23.097Z,37.29
2018-05-25T17:52:50.558Z,36.65
2018-05-25T17:55:18.047Z,35.97
2018-05-25T17:57:45.508Z,34.90
2018-05-25T18:00:12.986Z,33.46
2018-05-25T18:02:40.451Z,31.90
2018-05-25T18:05:07.945Z,31.07
2018-05-25T18:07:35.470Z,30.01
2018-05-25T18:10:02.985Z,29.34
2018-05-25T18:12:30.453Z,28.59
2018-05-25T18:14:57.920Z,27.93
2018-05-25T18:17:25.437Z,27.86
2018-05-25T18:19:52.932Z,27.35
2018-05-25T18:22:20.421Z,27.02
2018-05-25T18:24:47.880Z,26.80
2018-05-25T18:27:15.461Z,26.66
2018-05-25T18:29:42.905Z,26.53
2018-05-25T18:32:10.356Z,26.33
2018-05-25T18:34:37.817Z,26.18
2018-05-25T18:37:05.298Z,25.85
2018-05-25T18:39:32.760Z,25.83
2018-05-25T18:42:00.959Z,25.71
2018-05-25T18:44:28.443Z,25.41
2018-05-25T18:46:55.898Z,25.30
2018-05-25T18:49:23.367Z,25.19
2018-05-25T18:51:50.916Z,24.98
2018-05-25T18:54:30.245Z,24.90
2018-05-25T18:56:57.711Z,24.81
2018-05-25T18:59:25.231Z,24.63
2018-05-25T19:01:52.677Z,24.44
2018-05-25T19:04:20.144Z,24.32
2018-05-25T19:06:52.653Z,24.16
2018-05-25T19:09:20.145Z,23.98
2018-05-25T19:11:47.609Z,23.88
2018-05-25T19:14:15.096Z,23.78
2018-05-25T19:16:42.577Z,23.64
2018-05-25T19:19:10.118Z,23.63
2018-05-25T19:21:37.741Z,23.48
2018-05-25T19:24:05.232Z,23.37
2018-05-25T19:26:32.767Z,23.26
2018-05-25T19:29:00.237Z,23.25
2018-05-25T19:31:27.703Z,23.22
2018-05-25T19:33:55.172Z,23.05
2018-05-25T19:36:22.618Z,23.09
2018-05-25T19:38:50.167Z,23.02
2018-05-25T19:41:17.628Z,22.95
2018-05-25T19:43:45.090Z,22.90
2018-05-25T19:46:12.667Z,22.79
2018-05-25T19:48:40.115Z,22.61
2018-05-25T19:51:07.579Z,22.57
2018-05-25T19:53:35.072Z,22.49
2018-05-25T19:56:02.634Z,22.44
2018-05-25T19:58:30.127Z,22.33
2018-05-25T20:00:57.747Z,22.29
2018-05-25T20:03:25.233Z,22.27
2018-05-25T20:05:52.724Z,22.16
2018-05-25T20:08:20.184Z,22.15
2018-05-25T20:10:47.644Z,22.07
2018-05-25T20:13:15.223Z,21.99
2018-05-25T20:15:42.726Z,21.90
2018-05-25T20:18:10.208Z,21.82
2018-05-25T20:20:37.729Z,21.77
2018-05-25T20:23:05.239Z,21.74
2018-05-25T20:25:32.707Z,21.73
2018-05-25T20:28:00.174Z,21.63
2018-05-25T20:30:27.725Z,21.60
2018-05-25T20:32:55.224Z,21.43
2018-05-25T20:35:22.674Z,21.40
2018-05-25T20:37:50.141Z,21.28
2018-05-25T20:40:17.613Z,21.28
2018-05-25T20:42:45.107Z,21.22
2018-05-25T20:45:12.605Z,21.14
2018-05-25T20:47:40.105Z,20.99
2018-05-25T20:50:07.600Z,20.98
2018-05-25T20:52:35.095Z,20.94
2018-05-25T20:55:02.570Z,20.80
2018-05-25T20:57:30.043Z,20.75
2018-05-25T20:59:57.535Z,20.76
2018-05-25T21:02:25.079Z,20.72
2018-05-25T21:04:52.635Z,20.65
2018-05-25T21:07:20.287Z,20.54
2018-05-25T21:09:47.776Z,20.56
2018-05-25T21:12:15.315Z,20.52
2018-05-25T21:14:42.872Z,20.38
2018-05-25T21:17:10.346Z,20.42
2018-05-25T21:19:37.824Z,20.36
2018-05-25T21:22:05.304Z,20.26
2018-05-25T21:24:32.746Z,20.19
2018-05-25T21:27:00.212Z,20.09
2018-05-25T21:29:27.722Z,20.04
2018-05-25T21:31:55.255Z,19.99
2018-05-25T21:34:22.724Z,20.00
2018-05-25T21:36:50.293Z,20.04
2018-05-25T21:39:17.827Z,20.01
2018-05-25T21:41:46.134Z,19.94
2018-05-25T21:44:13.640Z,19.92
2018-05-25T21:46:41.136Z,19.95
2018-05-25T21:49:08.604Z,19.87
2018-05-25T21:51:36.064Z,19.87
2018-05-25T21:54:03.551Z,19.78
2018-05-25T21:56:31.026Z,19.76
2018-05-25T21:58:58.717Z,19.74
2018-05-25T22:01:27.896Z,19.66
2018-05-25T22:03:57.222Z,19.59
2018-05-25T22:06:28.492Z,19.48
2018-05-25T22:08:57.472Z,19.48
2018-05-25T22:11:24.943Z,19.44
2018-05-25T22:13:52.421Z,19.42
2018-05-25T22:16:20.704Z,19.40
2018-05-25T22:18:48.201Z,19.41
2018-05-25T22:21:15.693Z,19.33
2018-05-25T22:23:43.179Z,19.29
2018-05-25T22:26:10.656Z,19.17
2018-05-25T22:28:38.127Z,19.20
2018-05-25T22:31:05.611Z,19.14
2018-05-25T22:33:33.212Z,19.09
2018-05-25T22:36:00.684Z,19.06
2018-05-25T22:38:28.164Z,19.05
2018-05-25T22:40:55.714Z,18.99
2018-05-25T22:43:35.093Z,18.93
2018-05-25T22:46:16.929Z,18.95
2018-05-25T22:48:57.300Z,18.90
2018-05-25T22:51:36.885Z,18.86
2018-05-25T22:54:09.316Z,18.85
2018-05-25T22:56:36.798Z,18.81
2018-05-25T22:59:04.310Z,18.82
2018-05-25T23:01:31.814Z,18.83
2018-05-25T23:03:59.264Z,18.73
2018-05-25T23:06:26.744Z,18.62
2018-05-25T23:08:54.218Z,18.59
2018-05-25T23:11:21.713Z,18.49
2018-05-25T23:13:49.170Z,18.44
2018-05-25T23:16:16.631Z,18.42
2018-05-25T23:18:44.109Z,18.38
2018-05-25T23:21:11.608Z,18.37
2018-05-25T23:23:39.083Z,18.30
2018-05-25T23:26:06.535Z,18.28
2018-05-25T23:28:34.029Z,18.22
2018-05-25T23:31:01.496Z,18.23
2018-05-25T23:33:28.984Z,18.16
2018-05-25T23:35:56.438Z,18.18
2018-05-25T23:38:23.936Z,18.12
2018-05-25T23:40:51.431Z,18.11
2018-05-25T23:43:18.964Z,18.03
2018-05-25T23:45:46.427Z,17.99
2018-05-25T23:48:13.908Z,17.99
2018-05-25T23:50:41.413Z,17.92
2018-05-25T23:53:08.910Z,17.85
2018-05-25T23:55:36.378Z,17.91
2018-05-25T23:58:03.906Z,17.86
